sensor_id;sensor_type;location;lat;lon;timestamp;P1;P2;P0
55043;PMS5003;54902;50.420;18.854;2024-02-28T00:00:15;94;76;46
55043;PMS5003;54902;50.420;18.854;2024-02-28T00:00:46;94;76;46
55043;PMS5003;54902;50.420;18.854;2024-02-28T00:01:17;94;76;46
55043;PMS5003;54902;50.420;18.854;2024-02-28T00:01:51;94;76;46
55043;PMS5003;54902;50.420;18.854;2024-02-28T00:02:22;94;76;46
55043;PMS5003;54902;50.420;18.854;2024-02-28T00:02:53;94;76;46
55043;PMS5003;54902;50.420;18.854;2024-02-28T00:03:24;94;76;46
55043;PMS5003;54902;50.420;18.854;2024-02-28T00:03:55;94;76;46
55043;PMS5003;54902;50.420;18.854;2024-02-28T00:04:26;94;76;46
55043;PMS5003;54902;50.420;18.854;2024-02-28T00:04:57;94;76;46
55043;PMS5003;54902;50.420;18.854;2024-02-28T00:05:30;94;76;46
55043;PMS5003;54902;50.420;18.854;2024-02-28T00:06:02;94;76;46
55043;PMS5003;54902;50.420;18.854;2024-02-28T00:06:33;94;76;46
55043;PMS5003;54902;50.420;18.854;2024-02-28T00:07:04;94;76;46
55043;PMS5003;54902;50.420;18.854;2024-02-28T00:07:35;94;76;46
55043;PMS5003;54902;50.420;18.854;2024-02-28T00:08:06;94;76;46
55043;PMS5003;54902;50.420;18.854;2024-02-28T00:08:37;94;76;46
55043;PMS5003;54902;50.420;18.854;2024-02-28T00:09:08;94;76;46
55043;PMS5003;54902;50.420;18.854;2024-02-28T00:09:41;94;76;46
55043;PMS5003;54902;50.420;18.854;2024-02-28T00:10:12;94;76;46
55043;PMS5003;54902;50.420;18.854;2024-02-28T00:10:44;94;76;46
55043;PMS5003;54902;50.420;18.854;2024-02-28T00:11:15;94;76;46
55043;PMS5003;54902;50.420;18.854;2024-02-28T00:11:46;94;76;46
55043;PMS5003;54902;50.420;18.854;2024-02-28T00:12:18;94;76;46
55043;PMS5003;54902;50.420;18.854;2024-02-28T00:12:49;94;76;46
55043;PMS5003;54902;50.420;18.854;2024-02-28T00:13:20;94;76;46
55043;PMS5003;54902;50.420;18.854;2024-02-28T00:13:54;94;76;46
55043;PMS5003;54902;50.420;18.854;2024-02-28T00:14:25;94;76;46
55043;PMS5003;54902;50.420;18.854;2024-02-28T00:14:56;94;76;46
55043;PMS5003;54902;50.420;18.854;2024-02-28T00:15:27;94;76;46
55043;PMS5003;54902;50.420;18.854;2024-02-28T00:15:58;94;76;46
55043;PMS5003;54902;50.420;18.854;2024-02-28T00:16:29;94;76;46
55043;PMS5003;54902;50.420;18.854;2024-02-28T00:17:00;94;76;46
55043;PMS5003;54902;50.420;18.854;2024-02-28T00:17:31;94;76;46
55043;PMS5003;54902;50.420;18.854;2024-02-28T00:18:02;94;76;46
55043;PMS5003;54902;50.420;18.854;2024-02-28T00:18:33;94;76;46
55043;PMS5003;54902;50.420;18.854;2024-02-28T00:19:04;94;76;46
55043;PMS5003;54902;50.420;18.854;2024-02-28T00:19:36;94;76;46
55043;PMS5003;54902;50.420;18.854;2024-02-28T00:20:07;94;76;46
55043;PMS5003;54902;50.420;18.854;2024-02-28T00:20:39;94;76;46
55043;PMS5003;54902;50.420;18.854;2024-02-28T00:21:10;94;76;46
55043;PMS5003;54902;50.420;18.854;2024-02-28T00:21:41;94;76;46
55043;PMS5003;54902;50.420;18.854;2024-02-28T00:22:12;94;76;46
55043;PMS5003;54902;50.420;18.854;2024-02-28T00:22:44;94;76;46
55043;PMS5003;54902;50.420;18.854;2024-02-28T00:23:15;94;76;46
55043;PMS5003;54902;50.420;18.854;2024-02-28T00:23:46;94;76;46
55043;PMS5003;54902;50.420;18.854;2024-02-28T00:24:17;94;76;46
55043;PMS5003;54902;50.420;18.854;2024-02-28T00:24:48;94;76;46
55043;PMS5003;54902;50.420;18.854;2024-02-28T00:25:19;94;76;46
55043;PMS5003;54902;50.420;18.854;2024-02-28T00:25:50;94;76;46
55043;PMS5003;54902;50.420;18.854;2024-02-28T00:26:21;94;76;46
55043;PMS5003;54902;50.420;18.854;2024-02-28T00:26:52;94;76;46
55043;PMS5003;54902;50.420;18.854;2024-02-28T00:27:23;94;76;46
55043;PMS5003;54902;50.420;18.854;2024-02-28T00:27:54;94;76;46
55043;PMS5003;54902;50.420;18.854;2024-02-28T00:28:26;94;76;46
55043;PMS5003;54902;50.420;18.854;2024-02-28T00:28:57;94;76;46
55043;PMS5003;54902;50.420;18.854;2024-02-28T00:29:28;94;76;46
55043;PMS5003;54902;50.420;18.854;2024-02-28T00:29:59;94;76;46
55043;PMS5003;54902;50.420;18.854;2024-02-28T00:30:30;94;76;46
55043;PMS5003;54902;50.420;18.854;2024-02-28T00:31:03;94;76;46
55043;PMS5003;54902;50.420;18.854;2024-02-28T00:31:34;94;76;46
55043;PMS5003;54902;50.420;18.854;2024-02-28T00:32:05;94;76;46
55043;PMS5003;54902;50.420;18.854;2024-02-28T00:32:36;94;76;46
55043;PMS5003;54902;50.420;18.854;2024-02-28T00:33:07;94;76;46
55043;PMS5003;54902;50.420;18.854;2024-02-28T00:33:38;94;76;46
55043;PMS5003;54902;50.420;18.854;2024-02-28T00:34:09;94;76;46
55043;PMS5003;54902;50.420;18.854;2024-02-28T00:34:40;94;76;46
55043;PMS5003;54902;50.420;18.854;2024-02-28T00:35:11;94;76;46
55043;PMS5003;54902;50.420;18.854;2024-02-28T00:35:43;94;76;46
55043;PMS5003;54902;50.420;18.854;2024-02-28T00:36:14;94;76;46
55043;PMS5003;54902;50.420;18.854;2024-02-28T00:36:48;62;50;30
55043;PMS5003;54902;50.420;18.854;2024-02-28T00:37:19;62;50;30
55043;PMS5003;54902;50.420;18.854;2024-02-28T00:37:50;62;50;30
55043;PMS5003;54902;50.420;18.854;2024-02-28T00:38:21;62;50;30
55043;PMS5003;54902;50.420;18.854;2024-02-28T00:38:52;62;50;30
55043;PMS5003;54902;50.420;18.854;2024-02-28T00:39:23;62;50;30
55043;PMS5003;54902;50.420;18.854;2024-02-28T00:39:54;62;50;30
55043;PMS5003;54902;50.420;18.854;2024-02-28T00:40:25;62;50;30
55043;PMS5003;54902;50.420;18.854;2024-02-28T00:40:56;92;68;42
55043;PMS5003;54902;50.420;18.854;2024-02-28T00:41:27;92;68;42
55043;PMS5003;54902;50.420;18.854;2024-02-28T00:41:58;92;68;42
55043;PMS5003;54902;50.420;18.854;2024-02-28T00:42:29;92;68;42
55043;PMS5003;54902;50.420;18.854;2024-02-28T00:43:00;92;68;42
55043;PMS5003;54902;50.420;18.854;2024-02-28T00:43:32;71;56;35
55043;PMS5003;54902;50.420;18.854;2024-02-28T00:44:03;71;56;35
55043;PMS5003;54902;50.420;18.854;2024-02-28T00:44:34;71;56;35
55043;PMS5003;54902;50.420;18.854;2024-02-28T00:45:05;71;56;35
55043;PMS5003;54902;50.420;18.854;2024-02-28T00:45:39;71;56;35
55043;PMS5003;54902;50.420;18.854;2024-02-28T00:46:09;71;60;38
55043;PMS5003;54902;50.420;18.854;2024-02-28T00:46:42;71;60;38
55043;PMS5003;54902;50.420;18.854;2024-02-28T00:47:13;71;60;38
55043;PMS5003;54902;50.420;18.854;2024-02-28T00:47:44;71;60;38
55043;PMS5003;54902;50.420;18.854;2024-02-28T00:48:15;71;60;38
55043;PMS5003;54902;50.420;18.854;2024-02-28T00:48:46;71;60;38
55043;PMS5003;54902;50.420;18.854;2024-02-28T00:49:17;71;60;38
55043;PMS5003;54902;50.420;18.854;2024-02-28T00:49:48;71;60;38
55043;PMS5003;54902;50.420;18.854;2024-02-28T00:50:19;71;60;38
55043;PMS5003;54902;50.420;18.854;2024-02-28T00:50:50;71;60;38
55043;PMS5003;54902;50.420;18.854;2024-02-28T00:51:23;82;69;44
55043;PMS5003;54902;50.420;18.854;2024-02-28T00:51:53;82;69;44
55043;PMS5003;54902;50.420;18.854;2024-02-28T00:52:25;82;69;44
55043;PMS5003;54902;50.420;18.854;2024-02-28T00:52:56;82;69;44
55043;PMS5003;54902;50.420;18.854;2024-02-28T00:53:27;82;69;44
55043;PMS5003;54902;50.420;18.854;2024-02-28T00:53:58;82;69;44
55043;PMS5003;54902;50.420;18.854;2024-02-28T00:54:29;65;55;35
55043;PMS5003;54902;50.420;18.854;2024-02-28T00:54:59;65;55;35
55043;PMS5003;54902;50.420;18.854;2024-02-28T00:55:31;65;55;35
55043;PMS5003;54902;50.420;18.854;2024-02-28T00:56:02;65;55;35
55043;PMS5003;54902;50.420;18.854;2024-02-28T00:56:34;64;53;34
55043;PMS5003;54902;50.420;18.854;2024-02-28T00:57:05;64;53;34
55043;PMS5003;54902;50.420;18.854;2024-02-28T00:57:36;64;53;34
55043;PMS5003;54902;50.420;18.854;2024-02-28T00:58:07;64;53;34
55043;PMS5003;54902;50.420;18.854;2024-02-28T00:58:38;64;53;34
55043;PMS5003;54902;50.420;18.854;2024-02-28T00:59:09;64;53;34
55043;PMS5003;54902;50.420;18.854;2024-02-28T00:59:43;64;53;34
55043;PMS5003;54902;50.420;18.854;2024-02-28T01:00:15;64;53;34
55043;PMS5003;54902;50.420;18.854;2024-02-28T01:00:47;64;53;34
55043;PMS5003;54902;50.420;18.854;2024-02-28T01:01:18;64;53;34
55043;PMS5003;54902;50.420;18.854;2024-02-28T01:01:49;78;64;41
55043;PMS5003;54902;50.420;18.854;2024-02-28T01:02:20;78;64;41
55043;PMS5003;54902;50.420;18.854;2024-02-28T01:02:52;78;64;41
55043;PMS5003;54902;50.420;18.854;2024-02-28T01:03:23;78;64;41
55043;PMS5003;54902;50.420;18.854;2024-02-28T01:03:54;78;64;41
55043;PMS5003;54902;50.420;18.854;2024-02-28T01:04:25;78;64;41
55043;PMS5003;54902;50.420;18.854;2024-02-28T01:04:57;78;64;41
55043;PMS5003;54902;50.420;18.854;2024-02-28T01:05:27;78;64;41
55043;PMS5003;54902;50.420;18.854;2024-02-28T01:05:58;78;64;41
55043;PMS5003;54902;50.420;18.854;2024-02-28T01:06:31;78;64;41
55043;PMS5003;54902;50.420;18.854;2024-02-28T01:07:02;78;64;41
55043;PMS5003;54902;50.420;18.854;2024-02-28T01:07:33;78;64;41
55043;PMS5003;54902;50.420;18.854;2024-02-28T01:08:04;78;64;41
55043;PMS5003;54902;50.420;18.854;2024-02-28T01:08:36;78;64;41
55043;PMS5003;54902;50.420;18.854;2024-02-28T01:09:07;78;64;41
55043;PMS5003;54902;50.420;18.854;2024-02-28T01:09:38;78;64;41
55043;PMS5003;54902;50.420;18.854;2024-02-28T01:10:09;78;64;41
55043;PMS5003;54902;50.420;18.854;2024-02-28T01:10:40;78;64;41
55043;PMS5003;54902;50.420;18.854;2024-02-28T01:11:12;78;64;41
55043;PMS5003;54902;50.420;18.854;2024-02-28T01:11:43;78;64;41
55043;PMS5003;54902;50.420;18.854;2024-02-28T01:12:14;78;64;41
55043;PMS5003;54902;50.420;18.854;2024-02-28T01:12:45;78;64;41
55043;PMS5003;54902;50.420;18.854;2024-02-28T01:13:16;78;64;41
55043;PMS5003;54902;50.420;18.854;2024-02-28T01:13:48;78;64;41
55043;PMS5003;54902;50.420;18.854;2024-02-28T01:14:19;53;45;30
55043;PMS5003;54902;50.420;18.854;2024-02-28T01:14:50;53;45;30
55043;PMS5003;54902;50.420;18.854;2024-02-28T01:15:21;53;45;30
55043;PMS5003;54902;50.420;18.854;2024-02-28T01:15:52;53;45;30
55043;PMS5003;54902;50.420;18.854;2024-02-28T01:16:24;53;45;30
55043;PMS5003;54902;50.420;18.854;2024-02-28T01:16:56;53;45;30
55043;PMS5003;54902;50.420;18.854;2024-02-28T01:17:27;59;51;33
55043;PMS5003;54902;50.420;18.854;2024-02-28T01:17:57;59;51;33
55043;PMS5003;54902;50.420;18.854;2024-02-28T01:18:29;59;51;33
55043;PMS5003;54902;50.420;18.854;2024-02-28T01:19:02;59;51;33
55043;PMS5003;54902;50.420;18.854;2024-02-28T01:19:33;59;51;33
55043;PMS5003;54902;50.420;18.854;2024-02-28T01:20:05;59;51;33
55043;PMS5003;54902;50.420;18.854;2024-02-28T01:20:38;41;34;22
55043;PMS5003;54902;50.420;18.854;2024-02-28T01:21:09;41;34;22
55043;PMS5003;54902;50.420;18.854;2024-02-28T01:21:40;41;34;22
55043;PMS5003;54902;50.420;18.854;2024-02-28T01:22:11;41;34;22
55043;PMS5003;54902;50.420;18.854;2024-02-28T01:22:42;4;0;0
55043;PMS5003;54902;50.420;18.854;2024-02-28T01:23:13;4;0;0
55043;PMS5003;54902;50.420;18.854;2024-02-28T01:23:44;4;0;0
55043;PMS5003;54902;50.420;18.854;2024-02-28T01:24:15;4;0;0
55043;PMS5003;54902;50.420;18.854;2024-02-28T01:24:47;4;0;0
55043;PMS5003;54902;50.420;18.854;2024-02-28T01:25:18;4;0;0
55043;PMS5003;54902;50.420;18.854;2024-02-28T01:25:49;4;0;0
55043;PMS5003;54902;50.420;18.854;2024-02-28T01:26:20;4;0;0
55043;PMS5003;54902;50.420;18.854;2024-02-28T01:26:52;4;0;0
55043;PMS5003;54902;50.420;18.854;2024-02-28T01:27:23;4;0;0
55043;PMS5003;54902;50.420;18.854;2024-02-28T01:27:55;6;1;1
55043;PMS5003;54902;50.420;18.854;2024-02-28T01:28:28;6;1;1
55043;PMS5003;54902;50.420;18.854;2024-02-28T01:28:59;6;1;1
55043;PMS5003;54902;50.420;18.854;2024-02-28T01:29:30;6;1;1
55043;PMS5003;54902;50.420;18.854;2024-02-28T01:30:01;6;1;1
55043;PMS5003;54902;50.420;18.854;2024-02-28T01:30:32;6;1;1
55043;PMS5003;54902;50.420;18.854;2024-02-28T01:31:03;6;1;1
55043;PMS5003;54902;50.420;18.854;2024-02-28T01:31:36;6;1;1
55043;PMS5003;54902;50.420;18.854;2024-02-28T01:32:07;6;1;1
55043;PMS5003;54902;50.420;18.854;2024-02-28T01:32:38;6;1;1
55043;PMS5003;54902;50.420;18.854;2024-02-28T01:33:09;6;1;1
55043;PMS5003;54902;50.420;18.854;2024-02-28T01:33:39;6;1;1
55043;PMS5003;54902;50.420;18.854;2024-02-28T01:34:10;6;1;1
55043;PMS5003;54902;50.420;18.854;2024-02-28T01:34:41;6;1;1
55043;PMS5003;54902;50.420;18.854;2024-02-28T01:35:12;30;23;16
55043;PMS5003;54902;50.420;18.854;2024-02-28T01:35:44;30;23;16
55043;PMS5003;54902;50.420;18.854;2024-02-28T01:36:14;30;23;16
55043;PMS5003;54902;50.420;18.854;2024-02-28T01:36:45;30;23;16
55043;PMS5003;54902;50.420;18.854;2024-02-28T01:37:16;30;23;16
55043;PMS5003;54902;50.420;18.854;2024-02-28T01:37:47;30;23;16
55043;PMS5003;54902;50.420;18.854;2024-02-28T01:38:18;73;59;37
55043;PMS5003;54902;50.420;18.854;2024-02-28T01:38:49;73;59;37
55043;PMS5003;54902;50.420;18.854;2024-02-28T01:39:20;73;59;37
55043;PMS5003;54902;50.420;18.854;2024-02-28T01:39:51;73;59;37
55043;PMS5003;54902;50.420;18.854;2024-02-28T01:40:22;73;59;37
55043;PMS5003;54902;50.420;18.854;2024-02-28T01:40:53;73;59;37
55043;PMS5003;54902;50.420;18.854;2024-02-28T01:41:24;73;59;37
55043;PMS5003;54902;50.420;18.854;2024-02-28T01:41:55;73;59;37
55043;PMS5003;54902;50.420;18.854;2024-02-28T01:42:27;73;59;37
55043;PMS5003;54902;50.420;18.854;2024-02-28T01:43:04;73;59;37
55043;PMS5003;54902;50.420;18.854;2024-02-28T01:43:38;81;66;41
55043;PMS5003;54902;50.420;18.854;2024-02-28T01:44:09;81;66;41
55043;PMS5003;54902;50.420;18.854;2024-02-28T01:44:48;81;66;41
55043;PMS5003;54902;50.420;18.854;2024-02-28T01:45:17;81;66;41
55043;PMS5003;54902;50.420;18.854;2024-02-28T01:45:49;81;66;41
55043;PMS5003;54902;50.420;18.854;2024-02-28T01:46:24;81;66;41
55043;PMS5003;54902;50.420;18.854;2024-02-28T01:46:57;81;66;41
55043;PMS5003;54902;50.420;18.854;2024-02-28T01:47:28;81;66;41
55043;PMS5003;54902;50.420;18.854;2024-02-28T01:48:01;81;66;41
55043;PMS5003;54902;50.420;18.854;2024-02-28T01:48:33;81;66;41
55043;PMS5003;54902;50.420;18.854;2024-02-28T01:49:04;81;66;41
55043;PMS5003;54902;50.420;18.854;2024-02-28T01:49:35;81;66;41
55043;PMS5003;54902;50.420;18.854;2024-02-28T01:50:06;81;66;41
55043;PMS5003;54902;50.420;18.854;2024-02-28T01:50:39;81;66;41
55043;PMS5003;54902;50.420;18.854;2024-02-28T01:51:12;81;66;41
55043;PMS5003;54902;50.420;18.854;2024-02-28T01:51:44;81;66;41
55043;PMS5003;54902;50.420;18.854;2024-02-28T01:52:17;81;66;41
55043;PMS5003;54902;50.420;18.854;2024-02-28T01:52:48;81;66;41
55043;PMS5003;54902;50.420;18.854;2024-02-28T01:53:19;81;66;41
55043;PMS5003;54902;50.420;18.854;2024-02-28T01:53:51;81;66;41
55043;PMS5003;54902;50.420;18.854;2024-02-28T01:54:23;81;66;41
55043;PMS5003;54902;50.420;18.854;2024-02-28T01:54:55;81;66;41
55043;PMS5003;54902;50.420;18.854;2024-02-28T01:55:27;81;66;41
55043;PMS5003;54902;50.420;18.854;2024-02-28T01:55:58;81;66;41
55043;PMS5003;54902;50.420;18.854;2024-02-28T01:56:29;81;66;41
55043;PMS5003;54902;50.420;18.854;2024-02-28T01:57:01;81;66;41
55043;PMS5003;54902;50.420;18.854;2024-02-28T01:57:33;81;66;41
55043;PMS5003;54902;50.420;18.854;2024-02-28T01:58:07;81;66;41
55043;PMS5003;54902;50.420;18.854;2024-02-28T01:58:38;81;66;41
55043;PMS5003;54902;50.420;18.854;2024-02-28T01:59:10;81;66;41
55043;PMS5003;54902;50.420;18.854;2024-02-28T01:59:41;81;66;41
55043;PMS5003;54902;50.420;18.854;2024-02-28T02:00:12;81;66;41
55043;PMS5003;54902;50.420;18.854;2024-02-28T02:00:46;81;66;41
55043;PMS5003;54902;50.420;18.854;2024-02-28T02:01:18;81;66;41
55043;PMS5003;54902;50.420;18.854;2024-02-28T02:01:49;81;66;41
55043;PMS5003;54902;50.420;18.854;2024-02-28T02:02:21;81;66;41
55043;PMS5003;54902;50.420;18.854;2024-02-28T02:02:52;81;66;41
55043;PMS5003;54902;50.420;18.854;2024-02-28T02:03:23;81;66;41
55043;PMS5003;54902;50.420;18.854;2024-02-28T02:03:54;81;66;41
55043;PMS5003;54902;50.420;18.854;2024-02-28T02:04:26;75;61;38
55043;PMS5003;54902;50.420;18.854;2024-02-28T02:04:57;44;39;26
55043;PMS5003;54902;50.420;18.854;2024-02-28T02:05:29;44;39;26
55043;PMS5003;54902;50.420;18.854;2024-02-28T02:06:01;44;39;26
55043;PMS5003;54902;50.420;18.854;2024-02-28T02:06:34;44;39;26
55043;PMS5003;54902;50.420;18.854;2024-02-28T02:07:08;44;39;26
55043;PMS5003;54902;50.420;18.854;2024-02-28T02:07:39;44;39;26
55043;PMS5003;54902;50.420;18.854;2024-02-28T02:08:10;44;39;26
55043;PMS5003;54902;50.420;18.854;2024-02-28T02:08:41;44;39;26
55043;PMS5003;54902;50.420;18.854;2024-02-28T02:09:13;44;39;26
55043;PMS5003;54902;50.420;18.854;2024-02-28T02:09:44;44;39;26
55043;PMS5003;54902;50.420;18.854;2024-02-28T02:10:16;40;35;21
55043;PMS5003;54902;50.420;18.854;2024-02-28T02:10:48;40;35;21
55043;PMS5003;54902;50.420;18.854;2024-02-28T02:11:19;40;35;21
55043;PMS5003;54902;50.420;18.854;2024-02-28T02:11:51;40;35;21
55043;PMS5003;54902;50.420;18.854;2024-02-28T02:12:22;40;35;21
55043;PMS5003;54902;50.420;18.854;2024-02-28T02:12:53;40;35;21
55043;PMS5003;54902;50.420;18.854;2024-02-28T02:13:24;40;35;21
55043;PMS5003;54902;50.420;18.854;2024-02-28T02:13:55;40;35;21
55043;PMS5003;54902;50.420;18.854;2024-02-28T02:14:26;40;35;21
55043;PMS5003;54902;50.420;18.854;2024-02-28T02:14:57;40;35;21
55043;PMS5003;54902;50.420;18.854;2024-02-28T02:15:28;75;61;36
55043;PMS5003;54902;50.420;18.854;2024-02-28T02:16:01;75;61;36
55043;PMS5003;54902;50.420;18.854;2024-02-28T02:16:33;75;61;36
55043;PMS5003;54902;50.420;18.854;2024-02-28T02:17:04;75;61;36
55043;PMS5003;54902;50.420;18.854;2024-02-28T02:17:35;75;61;36
55043;PMS5003;54902;50.420;18.854;2024-02-28T02:18:06;75;61;36
55043;PMS5003;54902;50.420;18.854;2024-02-28T02:18:37;75;61;36
55043;PMS5003;54902;50.420;18.854;2024-02-28T02:19:10;75;61;36
55043;PMS5003;54902;50.420;18.854;2024-02-28T02:19:43;75;61;36
55043;PMS5003;54902;50.420;18.854;2024-02-28T02:20:14;75;61;36
55043;PMS5003;54902;50.420;18.854;2024-02-28T02:20:46;75;61;36
55043;PMS5003;54902;50.420;18.854;2024-02-28T02:21:23;75;61;36
55043;PMS5003;54902;50.420;18.854;2024-02-28T02:21:58;75;61;36
55043;PMS5003;54902;50.420;18.854;2024-02-28T02:22:37;75;61;36
55043;PMS5003;54902;50.420;18.854;2024-02-28T02:23:11;75;61;36
55043;PMS5003;54902;50.420;18.854;2024-02-28T02:23:43;75;61;36
55043;PMS5003;54902;50.420;18.854;2024-02-28T02:24:14;75;61;36
55043;PMS5003;54902;50.420;18.854;2024-02-28T02:24:45;75;61;36
55043;PMS5003;54902;50.420;18.854;2024-02-28T02:25:16;75;61;36
55043;PMS5003;54902;50.420;18.854;2024-02-28T02:25:47;71;58;34
55043;PMS5003;54902;50.420;18.854;2024-02-28T02:26:19;59;49;30
55043;PMS5003;54902;50.420;18.854;2024-02-28T02:26:54;59;49;30
55043;PMS5003;54902;50.420;18.854;2024-02-28T02:27:26;59;49;30
55043;PMS5003;54902;50.420;18.854;2024-02-28T02:27:57;59;49;30
55043;PMS5003;54902;50.420;18.854;2024-02-28T02:28:28;59;49;30
55043;PMS5003;54902;50.420;18.854;2024-02-28T02:28:59;68;55;33
55043;PMS5003;54902;50.420;18.854;2024-02-28T02:29:30;68;55;33
55043;PMS5003;54902;50.420;18.854;2024-02-28T02:30:01;68;55;33
55043;PMS5003;54902;50.420;18.854;2024-02-28T02:30:32;68;55;33
55043;PMS5003;54902;50.420;18.854;2024-02-28T02:31:03;68;55;33
55043;PMS5003;54902;50.420;18.854;2024-02-28T02:31:34;73;60;37
55043;PMS5003;54902;50.420;18.854;2024-02-28T02:32:05;73;60;37
55043;PMS5003;54902;50.420;18.854;2024-02-28T02:32:36;73;60;37
55043;PMS5003;54902;50.420;18.854;2024-02-28T02:33:07;73;60;37
55043;PMS5003;54902;50.420;18.854;2024-02-28T02:33:38;73;60;37
55043;PMS5003;54902;50.420;18.854;2024-02-28T02:34:09;73;60;37
55043;PMS5003;54902;50.420;18.854;2024-02-28T02:34:40;73;60;37
55043;PMS5003;54902;50.420;18.854;2024-02-28T02:35:11;73;60;37
55043;PMS5003;54902;50.420;18.854;2024-02-28T02:35:43;73;60;37
55043;PMS5003;54902;50.420;18.854;2024-02-28T02:36:14;73;60;37
55043;PMS5003;54902;50.420;18.854;2024-02-28T02:36:45;84;69;43
55043;PMS5003;54902;50.420;18.854;2024-02-28T02:37:16;84;69;43
55043;PMS5003;54902;50.420;18.854;2024-02-28T02:37:47;84;69;43
55043;PMS5003;54902;50.420;18.854;2024-02-28T02:38:18;84;69;43
55043;PMS5003;54902;50.420;18.854;2024-02-28T02:38:49;84;69;43
55043;PMS5003;54902;50.420;18.854;2024-02-28T02:39:20;84;69;43
55043;PMS5003;54902;50.420;18.854;2024-02-28T02:39:52;84;69;43
55043;PMS5003;54902;50.420;18.854;2024-02-28T02:40:24;84;69;43
55043;PMS5003;54902;50.420;18.854;2024-02-28T02:40:55;84;69;43
55043;PMS5003;54902;50.420;18.854;2024-02-28T02:41:25;84;69;43
55043;PMS5003;54902;50.420;18.854;2024-02-28T02:41:57;84;69;43
55043;PMS5003;54902;50.420;18.854;2024-02-28T02:42:28;84;69;43
55043;PMS5003;54902;50.420;18.854;2024-02-28T02:42:59;84;69;43
55043;PMS5003;54902;50.420;18.854;2024-02-28T02:43:30;84;69;43
55043;PMS5003;54902;50.420;18.854;2024-02-28T02:44:01;84;69;43
55043;PMS5003;54902;50.420;18.854;2024-02-28T02:44:32;84;69;43
55043;PMS5003;54902;50.420;18.854;2024-02-28T02:45:03;84;69;43
55043;PMS5003;54902;50.420;18.854;2024-02-28T02:45:34;84;69;43
55043;PMS5003;54902;50.420;18.854;2024-02-28T02:46:05;84;69;43
55043;PMS5003;54902;50.420;18.854;2024-02-28T02:46:36;84;69;43
55043;PMS5003;54902;50.420;18.854;2024-02-28T02:47:07;84;69;43
55043;PMS5003;54902;50.420;18.854;2024-02-28T02:47:38;84;69;43
55043;PMS5003;54902;50.420;18.854;2024-02-28T02:48:10;84;69;43
55043;PMS5003;54902;50.420;18.854;2024-02-28T02:48:41;84;69;43
55043;PMS5003;54902;50.420;18.854;2024-02-28T02:49:12;84;69;43
55043;PMS5003;54902;50.420;18.854;2024-02-28T02:49:43;84;69;43
55043;PMS5003;54902;50.420;18.854;2024-02-28T02:50:14;84;69;43
55043;PMS5003;54902;50.420;18.854;2024-02-28T02:50:45;84;69;43
55043;PMS5003;54902;50.420;18.854;2024-02-28T02:51:16;84;69;43
55043;PMS5003;54902;50.420;18.854;2024-02-28T02:51:49;80;64;40
55043;PMS5003;54902;50.420;18.854;2024-02-28T02:52:19;57;44;27
55043;PMS5003;54902;50.420;18.854;2024-02-28T02:52:50;57;44;27
55043;PMS5003;54902;50.420;18.854;2024-02-28T02:53:21;57;44;27
55043;PMS5003;54902;50.420;18.854;2024-02-28T02:53:52;57;44;27
55043;PMS5003;54902;50.420;18.854;2024-02-28T02:54:24;57;44;27
55043;PMS5003;54902;50.420;18.854;2024-02-28T02:54:55;57;44;27
55043;PMS5003;54902;50.420;18.854;2024-02-28T02:55:26;57;44;27
55043;PMS5003;54902;50.420;18.854;2024-02-28T02:55:57;57;44;27
55043;PMS5003;54902;50.420;18.854;2024-02-28T02:56:27;57;44;27
55043;PMS5003;54902;50.420;18.854;2024-02-28T02:56:59;57;44;27
55043;PMS5003;54902;50.420;18.854;2024-02-28T02:57:31;85;67;42
55043;PMS5003;54902;50.420;18.854;2024-02-28T02:58:02;85;67;42
55043;PMS5003;54902;50.420;18.854;2024-02-28T02:58:33;85;67;42
55043;PMS5003;54902;50.420;18.854;2024-02-28T02:59:04;85;67;42
55043;PMS5003;54902;50.420;18.854;2024-02-28T02:59:35;85;67;42
55043;PMS5003;54902;50.420;18.854;2024-02-28T03:00:10;62;50;30
55043;PMS5003;54902;50.420;18.854;2024-02-28T03:00:41;62;50;30
55043;PMS5003;54902;50.420;18.854;2024-02-28T03:01:12;62;50;30
55043;PMS5003;54902;50.420;18.854;2024-02-28T03:01:43;62;50;30
55043;PMS5003;54902;50.420;18.854;2024-02-28T03:02:14;62;50;30
55043;PMS5003;54902;50.420;18.854;2024-02-28T03:02:45;67;55;33
55043;PMS5003;54902;50.420;18.854;2024-02-28T03:03:16;67;55;33
55043;PMS5003;54902;50.420;18.854;2024-02-28T03:03:47;67;55;33
55043;PMS5003;54902;50.420;18.854;2024-02-28T03:04:18;67;55;33
55043;PMS5003;54902;50.420;18.854;2024-02-28T03:04:49;67;55;33
55043;PMS5003;54902;50.420;18.854;2024-02-28T03:05:20;67;55;33
55043;PMS5003;54902;50.420;18.854;2024-02-28T03:05:51;67;55;33
55043;PMS5003;54902;50.420;18.854;2024-02-28T03:06:22;67;55;33
55043;PMS5003;54902;50.420;18.854;2024-02-28T03:06:54;67;55;33
55043;PMS5003;54902;50.420;18.854;2024-02-28T03:07:25;76;62;37
55043;PMS5003;54902;50.420;18.854;2024-02-28T03:07:56;62;51;29
55043;PMS5003;54902;50.420;18.854;2024-02-28T03:08:28;62;51;29
55043;PMS5003;54902;50.420;18.854;2024-02-28T03:08:59;62;51;29
55043;PMS5003;54902;50.420;18.854;2024-02-28T03:09:30;62;51;29
55043;PMS5003;54902;50.420;18.854;2024-02-28T03:10:01;62;51;29
55043;PMS5003;54902;50.420;18.854;2024-02-28T03:10:33;62;51;29
55043;PMS5003;54902;50.420;18.854;2024-02-28T03:11:04;62;51;29
55043;PMS5003;54902;50.420;18.854;2024-02-28T03:11:38;62;51;29
55043;PMS5003;54902;50.420;18.854;2024-02-28T03:12:09;62;51;29
55043;PMS5003;54902;50.420;18.854;2024-02-28T03:12:40;62;51;29
55043;PMS5003;54902;50.420;18.854;2024-02-28T03:13:11;87;72;42
55043;PMS5003;54902;50.420;18.854;2024-02-28T03:13:42;87;72;42
55043;PMS5003;54902;50.420;18.854;2024-02-28T03:14:13;87;72;42
55043;PMS5003;54902;50.420;18.854;2024-02-28T03:14:44;87;72;42
55043;PMS5003;54902;50.420;18.854;2024-02-28T03:15:15;87;72;42
55043;PMS5003;54902;50.420;18.854;2024-02-28T03:15:47;87;72;42
55043;PMS5003;54902;50.420;18.854;2024-02-28T03:16:17;87;72;42
55043;PMS5003;54902;50.420;18.854;2024-02-28T03:16:48;87;72;42
55043;PMS5003;54902;50.420;18.854;2024-02-28T03:17:19;87;72;42
55043;PMS5003;54902;50.420;18.854;2024-02-28T03:17:50;87;72;42
55043;PMS5003;54902;50.420;18.854;2024-02-28T03:18:21;87;72;42
55043;PMS5003;54902;50.420;18.854;2024-02-28T03:18:53;87;72;42
55043;PMS5003;54902;50.420;18.854;2024-02-28T03:19:24;87;72;42